Time;durP1;ratioP1;P1;durP2;ratioP2;P2;SDS_P1;SDS_P2;PMS_P1;PMS_P2;Temp;Humidity;BMP_temperature;BMP_pressure;BME280_temperature;BME280_humidity;BME280_pressure;Samples;Min_cycle;Max_cycle;Signal;HPM_P1;HPM_P2
2021/05/11 00:00:41;;;;;;;10.70;3.78;;;14.10;99.90;;;;;;5055108;28;20069;-85
2021/05/11 00:03:07;;;;;;;12.18;4.38;;;14.10;99.90;;;;;;5072262;28;20068;-86
2021/05/11 00:05:34;;;;;;;16.23;4.30;;;14.10;99.90;;;;;;5055239;28;20053;-84
2021/05/11 00:08:00;;;;;;;13.18;4.32;;;14.10;99.90;;;;;;5056734;28;20116;-85
2021/05/11 00:10:28;;;;;;;9.77;3.33;;;14.10;99.90;;;;;;5061615;28;20049;-86
2021/05/11 00:12:55;;;;;;;14.88;4.07;;;14.10;99.90;;;;;;5056525;28;20466;-85
2021/05/11 00:15:22;;;;;;;15.65;3.65;;;14.00;99.90;;;;;;5048242;28;20053;-85
2021/05/11 00:17:49;;;;;;;14.70;3.67;;;14.00;99.90;;;;;;5052100;28;20057;-85
2021/05/11 00:20:16;;;;;;;14.65;3.70;;;14.00;99.90;;;;;;5052638;28;20076;-85
2021/05/11 00:22:42;;;;;;;17.10;4.70;;;14.00;99.90;;;;;;5050131;28;20136;-85
2021/05/11 00:25:09;;;;;;;11.75;3.55;;;14.00;99.90;;;;;;5052320;28;20075;-84
2021/05/11 00:27:35;;;;;;;11.57;4.25;;;14.00;99.90;;;;;;5063927;28;20139;-84
2021/05/11 00:30:03;;;;;;;8.05;3.50;;;13.90;99.90;;;;;;5052729;28;20059;-84
2021/05/11 00:32:30;;;;;;;16.77;4.10;;;14.00;99.90;;;;;;5050755;28;20048;-84
2021/05/11 00:34:56;;;;;;;17.48;4.78;;;13.90;99.90;;;;;;5047383;28;20047;-84
2021/05/11 00:37:22;;;;;;;10.45;3.80;;;13.90;99.90;;;;;;5049322;28;20053;-84
2021/05/11 00:39:49;;;;;;;11.43;3.83;;;13.90;99.90;;;;;;5051817;28;20087;-84
2021/05/11 00:42:15;;;;;;;16.50;4.70;;;13.90;99.90;;;;;;5065418;28;20049;-84
2021/05/11 00:44:41;;;;;;;9.75;3.97;;;13.90;99.90;;;;;;5067959;28;20053;-84
2021/05/11 00:47:08;;;;;;;14.88;3.75;;;13.90;99.90;;;;;;5051292;28;20049;-84
2021/05/11 00:49:36;;;;;;;11.90;3.72;;;13.90;99.90;;;;;;5049576;28;20057;-85
2021/05/11 00:52:05;;;;;;;12.90;3.45;;;13.90;99.90;;;;;;5057327;28;20443;-86
2021/05/11 00:54:33;;;;;;;10.05;4.15;;;13.90;99.90;;;;;;5048683;28;20053;-86
2021/05/11 00:57:01;;;;;;;17.35;4.78;;;13.90;99.90;;;;;;5048866;28;20048;-86
2021/05/11 00:59:29;;;;;;;13.60;4.63;;;13.90;99.90;;;;;;5050431;28;20083;-86
2021/05/11 01:01:57;;;;;;;11.00;3.80;;;13.90;99.90;;;;;;5053803;28;20072;-85
2021/05/11 01:04:26;;;;;;;13.35;3.47;;;13.80;99.90;;;;;;5062358;28;20028;-86
2021/05/11 01:06:54;;;;;;;12.20;4.60;;;13.90;99.90;;;;;;5035486;28;20048;-85
2021/05/11 01:09:21;;;;;;;13.38;4.13;;;13.90;99.90;;;;;;5050366;28;20045;-86
2021/05/11 01:11:48;;;;;;;8.60;3.60;;;13.80;99.90;;;;;;5042970;28;20465;-86
2021/05/11 01:14:15;;;;;;;11.10;3.50;;;13.80;99.90;;;;;;5049791;28;20061;-86
2021/05/11 01:16:43;;;;;;;11.13;3.42;;;13.80;99.90;;;;;;5046074;28;20052;-84
2021/05/11 01:19:21;;;;;;;11.73;3.15;;;13.80;99.90;;;;;;5048499;28;20047;-82
2021/05/11 01:24:47;;;;;;;13.85;3.58;;;13.70;99.90;;;;;;5051238;28;20044;-82
2021/05/11 01:27:34;;;;;;;13.63;3.80;;;13.70;99.90;;;;;;5065134;28;20059;-81
2021/05/11 01:32:51;;;;;;;8.68;3.30;;;13.70;99.90;;;;;;5054017;28;20057;-83
2021/05/11 01:46:38;;;;;;;13.07;4.03;;;13.60;99.90;;;;;;5052149;28;20080;-82
2021/05/11 01:54:42;;;;;;;10.38;4.35;;;13.60;99.90;;;;;;5051664;28;20076;-82
2021/05/11 02:11:11;;;;;;;11.15;3.75;;;13.60;99.90;;;;;;5050574;28;20049;-82
2021/05/11 02:24:36;;;;;;;13.20;4.45;;;13.50;99.90;;;;;;5048289;28;20472;-83
2021/05/11 02:27:02;;;;;;;13.00;3.58;;;13.50;99.90;;;;;;5065586;28;20052;-83
2021/05/11 02:29:28;;;;;;;9.15;3.97;;;13.50;99.90;;;;;;5061067;28;20053;-82
2021/05/11 02:31:55;;;;;;;9.48;3.53;;;13.50;99.90;;;;;;5063872;28;20082;-82
2021/05/11 02:34:21;;;;;;;10.95;3.50;;;13.40;99.90;;;;;;5050644;28;20147;-82
2021/05/11 02:36:48;;;;;;;9.73;3.63;;;13.50;99.90;;;;;;5051724;28;20130;-83
2021/05/11 02:39:15;;;;;;;8.02;3.05;;;13.40;99.90;;;;;;5061025;28;20075;-83
2021/05/11 02:41:43;;;;;;;11.05;4.25;;;13.40;99.90;;;;;;5051021;28;20076;-82
2021/05/11 02:44:10;;;;;;;10.93;3.80;;;13.40;99.90;;;;;;5065127;28;20140;-82
2021/05/11 02:46:36;;;;;;;16.52;4.07;;;13.40;99.90;;;;;;5046292;28;20057;-82
2021/05/11 02:49:03;;;;;;;12.45;4.20;;;13.30;99.90;;;;;;5062252;28;20148;-82
2021/05/11 02:51:29;;;;;;;14.60;4.15;;;13.30;99.90;;;;;;5050320;28;20098;-82
2021/05/11 02:53:55;;;;;;;9.40;3.80;;;13.30;99.90;;;;;;5048465;28;20080;-82
2021/05/11 02:56:22;;;;;;;13.00;4.63;;;13.30;99.90;;;;;;5048095;28;20131;-82
2021/05/11 02:58:49;;;;;;;10.27;5.35;;;13.20;99.90;;;;;;5046550;28;20061;-83
2021/05/11 03:01:16;;;;;;;12.93;5.15;;;13.20;99.90;;;;;;5051595;28;20075;-82
2021/05/11 03:03:43;;;;;;;6.90;4.43;;;13.20;99.90;;;;;;5050596;28;20059;-83
2021/05/11 03:06:10;;;;;;;15.70;5.80;;;13.10;99.90;;;;;;5050113;28;20052;-83
2021/05/11 03:08:41;;;;;;;15.75;5.30;;;13.10;99.90;;;;;;5046926;28;20064;-83
2021/05/11 03:11:07;;;;;;;10.88;5.20;;;13.10;99.90;;;;;;5045032;28;20048;-83
2021/05/11 03:13:34;;;;;;;14.30;4.65;;;13.10;99.90;;;;;;5058139;28;20068;-84
2021/05/11 03:16:00;;;;;;;13.35;4.90;;;13.00;99.90;;;;;;5049683;28;20102;-83
2021/05/11 03:18:27;;;;;;;15.45;5.22;;;13.00;99.90;;;;;;5050222;28;20108;-83
2021/05/11 03:20:53;;;;;;;15.05;5.68;;;13.00;99.90;;;;;;5049672;28;20088;-83
2021/05/11 03:23:20;;;;;;;14.13;5.35;;;13.00;99.90;;;;;;5062972;28;20048;-84
2021/05/11 03:25:46;;;;;;;12.40;5.25;;;13.00;99.90;;;;;;5063278;28;20128;-83
2021/05/11 03:28:12;;;;;;;12.13;5.63;;;13.00;99.90;;;;;;5046911;28;20060;-85
2021/05/11 03:30:41;;;;;;;11.88;5.72;;;13.00;99.90;;;;;;5044476;28;20666;-83
2021/05/11 03:33:07;;;;;;;16.33;5.65;;;13.00;99.90;;;;;;5044445;28;20575;-83
2021/05/11 03:35:34;;;;;;;14.82;6.13;;;13.00;99.90;;;;;;5060301;28;20087;-83
2021/05/11 03:38:00;;;;;;;11.32;5.25;;;13.00;99.90;;;;;;5040012;28;20496;-83
2021/05/11 03:40:27;;;;;;;16.00;6.93;;;13.10;99.90;;;;;;5046871;28;20075;-84
2021/05/11 03:43:00;;;;;;;9.13;6.10;;;13.10;99.90;;;;;;5045429;28;20111;-83
2021/05/11 03:45:31;;;;;;;16.85;6.88;;;13.10;99.90;;;;;;5059290;28;20098;-83
2021/05/11 03:47:57;;;;;;;14.68;6.80;;;13.10;99.90;;;;;;5037872;28;20068;-83
2021/05/11 03:50:24;;;;;;;13.48;6.18;;;13.10;99.90;;;;;;5048761;28;20511;-84
2021/05/11 03:52:52;;;;;;;11.00;7.05;;;13.10;99.90;;;;;;5042084;28;20067;-83
2021/05/11 03:55:19;;;;;;;15.60;7.03;;;13.10;99.90;;;;;;5047818;28;20075;-84
2021/05/11 03:57:46;;;;;;;15.35;7.07;;;13.10;99.90;;;;;;5038022;28;20067;-83
2021/05/11 04:00:14;;;;;;;18.40;6.63;;;13.20;99.90;;;;;;5048400;28;20068;-84
2021/05/11 04:02:40;;;;;;;17.27;7.53;;;13.10;99.90;;;;;;5050132;28;20119;-83
2021/05/11 04:05:10;;;;;;;16.25;7.05;;;13.10;99.90;;;;;;5050514;28;20044;-84
2021/05/11 04:07:39;;;;;;;15.20;7.78;;;13.20;99.90;;;;;;5062217;28;20109;-83
2021/05/11 04:13:51;;;;;;;20.00;7.70;;;13.10;99.90;;;;;;5051139;28;20042;-83
2021/05/11 04:18:24;;;;;;;17.45;7.68;;;13.20;99.90;;;;;;5049135;28;20040;-83
2021/05/11 04:20:51;;;;;;;22.13;7.75;;;13.10;99.90;;;;;;5049831;28;20109;-83
2021/05/11 04:23:18;;;;;;;13.05;7.85;;;13.20;99.90;;;;;;5049604;28;20114;-83
2021/05/11 04:25:46;;;;;;;19.13;8.75;;;13.20;99.90;;;;;;5049975;28;20056;-83
2021/05/11 04:28:13;;;;;;;15.45;8.20;;;13.20;99.90;;;;;;5048830;28;20064;-83
2021/05/11 04:30:39;;;;;;;15.60;7.57;;;13.20;99.90;;;;;;5063100;28;21455;-83
2021/05/11 04:33:06;;;;;;;18.30;8.30;;;13.20;99.90;;;;;;5045980;28;20068;-82
2021/05/11 04:35:33;;;;;;;16.88;8.10;;;13.20;99.90;;;;;;5061991;28;20045;-83
2021/05/11 04:38:00;;;;;;;16.77;8.05;;;13.30;99.90;;;;;;5045722;28;20068;-83
2021/05/11 04:40:27;;;;;;;18.75;8.98;;;13.30;99.90;;;;;;5048172;28;20048;-83
2021/05/11 04:42:54;;;;;;;13.75;7.32;;;13.30;99.90;;;;;;5028294;28;20103;-83
2021/05/11 04:45:23;;;;;;;13.70;8.13;;;13.30;99.90;;;;;;5037325;28;20045;-84
2021/05/11 04:47:50;;;;;;;19.58;8.20;;;13.30;99.90;;;;;;5049359;28;20072;-83
2021/05/11 04:50:20;;;;;;;18.48;8.68;;;13.30;99.90;;;;;;5048497;28;20484;-83
2021/05/11 04:52:50;;;;;;;11.55;7.53;;;13.40;99.90;;;;;;5047783;28;20072;-83
2021/05/11 04:55:18;;;;;;;16.77;8.20;;;13.40;99.90;;;;;;5047589;28;20136;-82
2021/05/11 04:57:45;;;;;;;18.55;8.85;;;13.40;99.90;;;;;;5049045;28;20057;-83
2021/05/11 05:00:14;;;;;;;18.17;9.30;;;13.40;99.90;;;;;;5052140;28;20044;-83
2021/05/11 05:02:48;;;;;;;13.63;8.20;;;13.50;99.90;;;;;;5060040;28;20052;-83
2021/05/11 05:05:16;;;;;;;15.77;8.77;;;13.40;99.90;;;;;;5062956;28;20033;-83
2021/05/11 05:07:43;;;;;;;16.00;8.10;;;13.40;99.90;;;;;;5060158;28;20040;-83
2021/05/11 05:10:14;;;;;;;13.65;8.82;;;13.50;99.90;;;;;;5065162;28;20470;-83
2021/05/11 05:12:47;;;;;;;16.20;8.73;;;13.50;99.90;;;;;;5057639;28;20064;-83
2021/05/11 05:15:15;;;;;;;21.08;10.02;;;13.50;99.90;;;;;;5063393;28;20146;-84
2021/05/11 05:17:42;;;;;;;14.90;8.73;;;13.60;99.90;;;;;;5051726;28;20064;-84
2021/05/11 05:20:10;;;;;;;17.45;8.40;;;13.60;99.90;;;;;;5050784;28;20053;-83
2021/05/11 05:22:37;;;;;;;19.67;8.80;;;13.60;99.90;;;;;;5049965;28;20061;-83
2021/05/11 05:25:26;;;;;;;16.30;8.88;;;13.60;99.90;;;;;;5037689;28;20073;-83
2021/05/11 05:30:21;;;;;;;17.67;8.27;;;13.70;99.90;;;;;;5029619;28;20060;-83
2021/05/11 05:32:47;;;;;;;15.88;9.10;;;13.70;99.90;;;;;;5061846;28;20112;-83
2021/05/11 05:35:16;;;;;;;16.05;8.77;;;13.70;99.90;;;;;;5048624;28;20049;-83
2021/05/11 05:37:43;;;;;;;17.13;8.90;;;13.70;99.90;;;;;;5050743;28;20118;-84
2021/05/11 05:40:11;;;;;;;14.32;9.30;;;13.70;99.90;;;;;;5049618;28;20053;-84
2021/05/11 05:42:38;;;;;;;19.92;9.07;;;13.80;99.90;;;;;;5031464;28;20125;-84
2021/05/11 05:45:06;;;;;;;14.20;8.68;;;13.90;99.90;;;;;;5051035;28;20068;-84
2021/05/11 05:47:32;;;;;;;15.95;9.27;;;13.90;99.90;;;;;;5049976;28;20044;-83
2021/05/11 05:50:04;;;;;;;16.95;10.45;;;13.90;99.90;;;;;;5063618;28;20108;-83
2021/05/11 05:52:35;;;;;;;19.15;9.40;;;14.00;99.90;;;;;;5061647;28;20120;-82
2021/05/11 05:55:15;;;;;;;17.15;9.95;;;14.00;99.90;;;;;;5061184;28;20051;-82
2021/05/11 05:57:42;;;;;;;20.25;10.38;;;14.00;99.90;;;;;;5047359;28;20056;-83
2021/05/11 06:00:09;;;;;;;23.90;10.52;;;14.00;99.90;;;;;;5049774;28;20049;-82
2021/05/11 06:02:44;;;;;;;18.05;9.98;;;14.00;99.90;;;;;;5063943;28;20057;-83
2021/05/11 06:05:12;;;;;;;20.60;11.23;;;14.00;99.90;;;;;;5051263;28;20040;-84
2021/05/11 06:07:40;;;;;;;18.27;11.43;;;14.00;99.90;;;;;;5049270;28;20053;-86
2021/05/11 06:10:09;;;;;;;25.00;12.02;;;14.00;99.90;;;;;;5048634;28;20045;-84
2021/05/11 06:12:52;;;;;;;19.92;10.60;;;14.10;99.90;;;;;;5048300;28;20091;-84
2021/05/11 06:18:05;;;;;;;18.20;10.90;;;14.30;99.90;;;;;;5049749;28;20474;-85
2021/05/11 06:20:32;;;;;;;18.98;10.63;;;14.40;99.90;;;;;;5036723;28;20052;-85
2021/05/11 06:23:01;;;;;;;16.00;9.80;;;14.50;99.90;;;;;;5040010;28;20571;-85
2021/05/11 06:25:31;;;;;;;15.07;10.48;;;14.60;99.90;;;;;;5035348;28;20091;-83
2021/05/11 06:28:04;;;;;;;14.77;9.77;;;14.70;99.90;;;;;;5034711;28;20385;-84
2021/05/11 06:30:30;;;;;;;17.30;10.50;;;14.80;99.90;;;;;;5046054;28;20055;-84
2021/05/11 06:32:57;;;;;;;16.35;9.82;;;14.90;99.90;;;;;;5042948;28;20079;-84
2021/05/11 06:35:26;;;;;;;13.32;8.93;;;15.10;99.90;;;;;;5045393;28;20048;-84
2021/05/11 06:37:57;;;;;;;18.60;9.48;;;15.20;99.90;;;;;;5043027;28;20080;-84
2021/05/11 06:40:25;;;;;;;10.77;9.05;;;15.30;99.90;;;;;;5055187;28;20065;-84
2021/05/11 06:42:52;;;;;;;14.05;8.07;;;15.30;99.90;;;;;;5042772;28;20049;-84
2021/05/11 06:46:06;;;;;;;15.23;8.50;;;15.40;99.90;;;;;;5058136;28;20132;-83
2021/05/11 06:48:26;;;;;;;11.13;7.25;;;15.50;99.90;;;;;;5047363;28;20059;-83
2021/05/11 06:53:40;;;;;;;8.85;7.38;;;15.60;99.90;;;;;;5047340;28;20092;-84
2021/05/11 06:56:09;;;;;;;9.50;7.15;;;15.60;99.90;;;;;;5058083;28;20136;-84
2021/05/11 06:58:36;;;;;;;8.75;6.72;;;15.70;99.90;;;;;;5044958;28;20103;-84
2021/05/11 07:01:04;;;;;;;10.30;5.97;;;15.70;99.90;;;;;;5005902;28;20070;-84
2021/05/11 07:03:32;;;;;;;7.47;5.72;;;15.80;99.90;;;;;;5056550;28;20049;-85
2021/05/11 07:06:00;;;;;;;9.05;5.95;;;15.90;99.90;;;;;;5032252;28;20053;-84
2021/05/11 07:11:11;;;;;;;6.20;5.53;;;16.10;99.90;;;;;;5030819;28;20088;-85
2021/05/11 07:13:39;;;;;;;7.57;6.13;;;16.20;99.90;;;;;;5034732;28;20060;-84
2021/05/11 07:16:07;;;;;;;8.50;6.40;;;16.20;99.90;;;;;;5044789;28;20126;-85
2021/05/11 07:18:34;;;;;;;8.30;6.28;;;16.40;99.90;;;;;;5051447;28;20056;-85
2021/05/11 07:21:01;;;;;;;9.43;7.20;;;16.60;99.90;;;;;;5041096;28;20510;-84
2021/05/11 07:23:29;;;;;;;7.75;6.75;;;16.70;99.90;;;;;;5041733;28;20060;-85
2021/05/11 07:26:25;;;;;;;9.98;7.15;;;16.80;99.90;;;;;;5035889;28;20057;-84
2021/05/11 07:29:11;;;;;;;13.48;7.70;;;16.90;99.90;;;;;;4996406;28;20052;-84
2021/05/11 07:31:39;;;;;;;10.57;7.20;;;17.00;99.90;;;;;;5040511;28;20060;-84
2021/05/11 07:34:20;;;;;;;14.93;8.02;;;17.10;99.90;;;;;;5052718;28;20533;-85
2021/05/11 07:37:12;;;;;;;9.13;7.45;;;17.30;99.90;;;;;;4922756;28;20049;-84
2021/05/11 07:39:44;;;;;;;9.23;7.50;;;17.50;99.90;;;;;;5024587;28;20045;-85
2021/05/11 07:42:12;;;;;;;12.40;8.82;;;17.70;99.90;;;;;;5017035;28;21678;-84
2021/05/11 07:44:46;;;;;;;10.13;8.52;;;17.90;99.90;;;;;;5033074;28;20063;-83
2021/05/11 08:17:05;;;;;;;8.07;7.28;;;18.80;99.90;;;;;;5044716;28;20052;-84
2021/05/11 08:28:27;;;;;;;10.68;7.47;;;18.90;99.90;;;;;;5049096;28;20456;-84
2021/05/11 08:30:23;;;;;;;6.30;5.70;;;19.10;99.90;;;;;;5033811;28;20218;-84
2021/05/11 08:32:50;;;;;;;7.40;5.95;;;19.20;99.90;;;;;;5039487;28;20171;-84
2021/05/11 08:35:17;;;;;;;6.03;4.95;;;19.30;99.90;;;;;;5058078;28;20059;-84
2021/05/11 08:37:44;;;;;;;6.63;5.22;;;19.40;99.90;;;;;;5062078;28;20115;-84
2021/05/11 08:40:11;;;;;;;5.57;4.68;;;19.60;99.90;;;;;;5060746;28;20048;-84
2021/05/11 08:42:38;;;;;;;5.70;4.70;;;19.80;99.90;;;;;;5064319;28;20089;-84
2021/05/11 08:45:09;;;;;;;4.07;3.70;;;20.10;99.90;;;;;;5062405;28;20052;-85
2021/05/11 08:47:48;;;;;;;4.82;4.28;;;20.20;99.90;;;;;;5046443;28;20057;-83
2021/05/11 08:50:22;;;;;;;4.85;4.43;;;20.10;99.90;;;;;;5055532;28;20139;-85
2021/05/11 08:55:34;;;;;;;4.20;3.83;;;20.30;99.90;;;;;;5050934;28;20049;-84
2021/05/11 09:06:40;;;;;;;6.15;5.05;;;21.00;99.90;;;;;;5046992;28;20053;-83
2021/05/11 09:09:36;;;;;;;8.10;5.47;;;21.20;99.90;;;;;;5040841;28;20067;-83
2021/05/11 09:25:50;;;;;;;9.77;8.77;;;21.60;99.90;;;;;;5048099;28;20056;-83
2021/05/11 09:28:25;;;;;;;11.88;9.57;;;21.50;99.90;;;;;;5061052;28;20051;-83
2021/05/11 09:34:11;;;;;;;10.77;9.45;;;21.20;99.90;;;;;;5046488;28;20049;-83
2021/05/11 09:56:17;;;;;;;15.77;10.77;;;20.40;99.90;;;;;;5052344;28;20072;-84
2021/05/11 10:14:00;;;;;;;16.90;13.13;;;20.60;99.90;;;;;;5047793;28;20136;-83
2021/05/11 10:36:49;;;;;;;13.68;12.18;;;20.50;99.90;;;;;;5041119;28;20057;-84
2021/05/11 10:49:33;;;;;;;12.27;11.07;;;22.00;99.90;;;;;;5046520;28;20048;-83
2021/05/11 10:52:22;;;;;;;14.63;12.32;;;22.50;99.90;;;;;;5043050;28;20064;-84
2021/05/11 10:55:21;;;;;;;12.80;10.98;;;23.00;99.90;;;;;;5036405;28;20049;-84
2021/05/11 10:57:54;;;;;;;12.43;11.13;;;23.10;99.40;;;;;;5030957;28;20135;-84
2021/05/11 11:03:16;;;;;;;12.57;10.33;;;23.70;99.20;;;;;;5043271;28;20056;-85
2021/05/11 11:05:45;;;;;;;11.07;9.77;;;24.10;99.30;;;;;;5029879;28;20057;-83
2021/05/11 11:08:33;;;;;;;11.25;9.23;;;24.30;97.10;;;;;;5047789;28;20468;-83
2021/05/11 11:11:21;;;;;;;12.10;10.27;;;24.50;95.30;;;;;;5046422;28;20052;-84
2021/05/11 11:13:56;;;;;;;11.80;10.43;;;24.50;94.90;;;;;;4996712;28;20491;-84
2021/05/11 11:16:41;;;;;;;12.30;11.00;;;24.70;93.20;;;;;;5039355;28;20057;-83
2021/05/11 11:19:13;;;;;;;11.13;10.10;;;24.60;92.40;;;;;;5033754;28;20049;-85
2021/05/11 11:24:33;;;;;;;10.52;9.45;;;23.70;94.30;;;;;;5046250;28;19931;-83
2021/05/11 11:27:00;;;;;;;9.55;8.52;;;23.10;95.10;;;;;;5040082;28;20053;-84
2021/05/11 11:29:28;;;;;;;9.70;8.50;;;22.70;96.00;;;;;;5042230;28;20053;-84
2021/05/11 11:31:55;;;;;;;9.77;8.60;;;22.30;96.50;;;;;;5039190;28;20103;-84
2021/05/11 11:34:32;;;;;;;9.73;8.50;;;21.90;97.80;;;;;;5046638;28;20245;-83
2021/05/11 11:37:10;;;;;;;10.90;9.80;;;21.40;99.50;;;;;;5016235;28;20059;-83
2021/05/11 11:39:42;;;;;;;11.43;9.85;;;21.20;99.90;;;;;;5058032;28;20072;-85
2021/05/11 11:42:16;;;;;;;10.70;9.60;;;21.00;99.90;;;;;;5044228;28;20057;-83
2021/05/11 11:44:44;;;;;;;11.52;10.43;;;20.90;99.90;;;;;;5043881;28;20048;-83
2021/05/11 11:47:12;;;;;;;12.15;10.95;;;20.70;99.90;;;;;;5047392;28;20106;-84
2021/05/11 11:49:44;;;;;;;11.68;10.55;;;20.60;99.90;;;;;;5059368;28;20057;-83
2021/05/11 11:52:18;;;;;;;13.98;12.57;;;20.40;99.90;;;;;;5062438;28;20076;-83
2021/05/11 11:55:07;;;;;;;12.73;11.52;;;20.30;99.90;;;;;;5040118;28;20551;-83
2021/05/11 11:57:54;;;;;;;13.57;12.20;;;20.20;99.90;;;;;;5046695;28;20076;-83
2021/05/11 12:00:26;;;;;;;16.02;12.30;;;20.20;99.90;;;;;;5048177;28;20143;-84
2021/05/11 12:03:12;;;;;;;14.70;12.95;;;20.20;99.90;;;;;;5040979;28;20080;-84
2021/05/11 12:05:57;;;;;;;15.30;13.48;;;20.20;99.90;;;;;;5047328;28;20029;-84
2021/05/11 12:08:31;;;;;;;15.13;13.52;;;20.40;99.90;;;;;;5052142;28;20045;-84
2021/05/11 12:11:01;;;;;;;15.48;13.70;;;20.60;99.90;;;;;;5048829;28;20045;-84
2021/05/11 12:13:30;;;;;;;17.08;15.48;;;20.80;99.90;;;;;;5063310;28;20060;-84
2021/05/11 12:16:17;;;;;;;21.00;14.38;;;20.80;99.90;;;;;;5048286;28;20484;-84
2021/05/11 12:19:05;;;;;;;14.73;13.32;;;20.70;99.90;;;;;;5046391;28;20049;-84
2021/05/11 12:21:53;;;;;;;15.40;13.98;;;20.80;99.90;;;;;;5040869;28;20114;-84
2021/05/11 12:24:27;;;;;;;17.05;15.43;;;21.10;99.90;;;;;;5046369;28;20128;-84
2021/05/11 12:27:14;;;;;;;16.30;14.63;;;21.30;99.90;;;;;;5045456;28;20052;-85
2021/05/11 12:30:01;;;;;;;15.20;13.73;;;21.40;99.90;;;;;;5047359;28;20511;-85
2021/05/11 12:32:32;;;;;;;15.50;14.05;;;21.40;99.90;;;;;;5045027;28;20489;-84
2021/05/11 12:35:13;;;;;;;15.57;13.98;;;21.50;99.90;;;;;;5046229;28;20140;-84
2021/05/11 12:37:47;;;;;;;15.10;13.55;;;21.50;99.90;;;;;;5042751;28;20064;-84
2021/05/11 12:40:29;;;;;;;14.70;13.20;;;21.30;99.90;;;;;;5037346;28;20049;-84
2021/05/11 12:42:58;;;;;;;13.13;11.82;;;21.20;99.90;;;;;;5045670;28;20044;-84
2021/05/11 12:45:26;;;;;;;14.13;12.65;;;21.10;99.90;;;;;;5044937;28;20060;-83
2021/05/11 12:48:01;;;;;;;13.48;12.05;;;21.00;99.90;;;;;;5054624;28;20071;-84
2021/05/11 12:50:35;;;;;;;12.98;11.77;;;20.90;99.90;;;;;;5047427;28;20060;-83
2021/05/11 12:53:36;;;;;;;23.17;14.52;;;20.70;99.90;;;;;;5051530;28;20052;-82
2021/05/11 13:01:49;;;;;;;8.70;7.80;;;20.10;99.90;;;;;;5050457;28;20119;-83
2021/05/11 13:15:34;;;;;;;6.45;5.63;;;19.70;99.90;;;;;;5050048;28;20128;-84
2021/05/11 13:26:06;;;;;;;7.78;6.28;;;19.40;99.90;;;;;;5047795;28;20044;-84
2021/05/11 13:28:57;;;;;;;8.23;6.47;;;19.40;99.90;;;;;;5043762;28;20057;-83
2021/05/11 13:36:47;;;;;;;8.63;7.72;;;19.40;99.90;;;;;;5003762;28;20756;-85
2021/05/11 13:39:14;;;;;;;8.73;7.82;;;19.20;99.90;;;;;;5042739;28;20147;-83
2021/05/11 13:41:43;;;;;;;7.22;6.57;;;19.10;99.90;;;;;;5037834;28;20048;-85
2021/05/11 13:44:09;;;;;;;7.50;6.70;;;19.00;99.90;;;;;;5042141;28;20102;-83
2021/05/11 13:46:36;;;;;;;7.25;6.45;;;18.70;99.90;;;;;;5046777;28;20057;-84
2021/05/11 13:49:04;;;;;;;7.55;6.80;;;18.60;99.90;;;;;;5065351;28;20041;-84
2021/05/11 13:51:31;;;;;;;10.45;8.93;;;18.50;99.90;;;;;;5045041;28;20057;-84
2021/05/11 13:54:00;;;;;;;10.18;9.18;;;18.50;99.90;;;;;;5059382;28;20045;-83
2021/05/11 14:02:18;;;;;;;11.95;10.35;;;18.20;99.90;;;;;;5047467;28;20073;-83
2021/05/11 14:04:45;;;;;;;9.88;8.15;;;18.20;99.90;;;;;;5048731;28;20060;-83
2021/05/11 14:07:12;;;;;;;9.35;7.25;;;18.10;99.90;;;;;;5042700;28;20045;-85
2021/05/11 14:09:38;;;;;;;8.30;5.90;;;17.90;99.90;;;;;;5045456;28;20075;-84
2021/05/11 14:12:06;;;;;;;9.85;5.25;;;17.80;99.90;;;;;;5059612;28;20183;-83
2021/05/11 14:14:32;;;;;;;6.30;4.88;;;17.70;99.90;;;;;;5042495;28;20053;-83
2021/05/11 14:17:00;;;;;;;8.00;4.32;;;17.50;99.90;;;;;;5045724;28;20107;-85
2021/05/11 14:19:30;;;;;;;5.75;3.80;;;17.40;99.90;;;;;;5044320;28;20072;-84
2021/05/11 14:21:58;;;;;;;6.28;4.07;;;17.20;99.90;;;;;;5036488;28;20140;-84
2021/05/11 14:24:25;;;;;;;5.55;3.95;;;17.10;99.90;;;;;;5040937;28;20403;-84
2021/05/11 14:26:52;;;;;;;7.90;3.42;;;17.10;99.90;;;;;;5045223;28;20400;-83
2021/05/11 14:29:20;;;;;;;5.22;3.33;;;17.10;99.90;;;;;;5023128;28;20052;-84
2021/05/11 14:31:47;;;;;;;4.88;3.65;;;17.00;99.90;;;;;;5054059;28;20059;-84
2021/05/11 14:34:15;;;;;;;5.32;3.40;;;16.90;99.90;;;;;;5042393;28;20408;-83
2021/05/11 14:36:42;;;;;;;5.07;3.63;;;16.90;99.90;;;;;;5041728;28;20068;-83
2021/05/11 14:39:09;;;;;;;6.05;3.80;;;16.90;99.90;;;;;;5058117;28;20049;-84
2021/05/11 14:41:36;;;;;;;5.18;4.18;;;16.80;99.90;;;;;;5040406;28;20069;-84
2021/05/11 14:44:04;;;;;;;7.20;3.67;;;16.80;99.90;;;;;;5043571;28;20056;-84
2021/05/11 14:46:31;;;;;;;10.70;4.30;;;16.70;99.90;;;;;;5044437;28;20051;-85
2021/05/11 14:48:58;;;;;;;6.70;5.25;;;16.50;99.90;;;;;;5044517;28;20049;-85
2021/05/11 14:51:28;;;;;;;9.90;5.30;;;16.20;99.90;;;;;;5057329;28;20056;-84
2021/05/11 14:53:55;;;;;;;10.05;5.82;;;15.90;99.90;;;;;;5044843;28;20084;-84
2021/05/11 14:56:22;;;;;;;9.93;4.75;;;15.70;99.90;;;;;;5042162;28;20055;-84
2021/05/11 14:58:49;;;;;;;7.80;4.55;;;15.60;99.90;;;;;;5043129;28;20064;-85
2021/05/11 15:01:16;;;;;;;6.32;5.38;;;15.60;99.90;;;;;;5046290;28;20041;-85
2021/05/11 15:03:42;;;;;;;11.25;5.63;;;15.70;99.90;;;;;;5060316;28;20053;-85
2021/05/11 15:06:19;;;;;;;6.47;4.60;;;15.80;99.90;;;;;;5065274;28;20045;-84
2021/05/11 15:08:46;;;;;;;7.93;5.38;;;16.00;99.90;;;;;;5053185;28;20124;-85
2021/05/11 15:11:15;;;;;;;5.13;4.65;;;16.20;99.90;;;;;;5045705;28;20045;-85
2021/05/11 15:13:44;;;;;;;7.88;4.65;;;16.40;99.90;;;;;;5051081;28;20049;-84
2021/05/11 15:16:13;;;;;;;11.45;5.18;;;16.40;99.90;;;;;;5054302;28;20048;-84
2021/05/11 15:18:40;;;;;;;7.50;3.95;;;16.30;99.90;;;;;;5051067;28;20063;-84
2021/05/11 15:21:07;;;;;;;5.05;3.60;;;16.20;99.90;;;;;;5044635;28;20049;-85
2021/05/11 15:23:35;;;;;;;8.13;4.00;;;16.00;99.90;;;;;;5046289;28;20045;-84
2021/05/11 15:26:02;;;;;;;5.00;3.20;;;15.90;99.90;;;;;;5045004;28;20081;-84
2021/05/11 15:28:29;;;;;;;5.72;4.22;;;15.90;99.90;;;;;;5058675;28;20067;-84
2021/05/11 15:30:56;;;;;;;6.53;4.82;;;15.80;99.90;;;;;;5043202;28;20499;-83
2021/05/11 15:33:25;;;;;;;7.15;4.57;;;15.80;99.90;;;;;;5042000;28;20128;-84
2021/05/11 15:35:52;;;;;;;8.90;5.68;;;15.80;99.90;;;;;;5025456;28;20053;-84
2021/05/11 15:38:19;;;;;;;11.00;6.30;;;15.80;99.90;;;;;;5041235;28;20109;-83
2021/05/11 15:40:46;;;;;;;11.30;6.78;;;15.80;99.90;;;;;;5045589;28;20556;-83
2021/05/11 15:43:14;;;;;;;8.90;6.40;;;15.80;99.90;;;;;;5041989;28;20033;-84
2021/05/11 15:45:41;;;;;;;9.52;6.28;;;15.80;99.90;;;;;;5059771;28;20487;-83
2021/05/11 15:48:09;;;;;;;8.32;6.32;;;15.80;99.90;;;;;;5048951;28;20099;-84
2021/05/11 15:50:39;;;;;;;12.18;6.13;;;15.80;99.90;;;;;;5048477;28;20103;-83
2021/05/11 15:53:08;;;;;;;10.10;6.40;;;15.90;99.90;;;;;;5050093;28;20079;-84
2021/05/11 15:55:38;;;;;;;10.80;5.45;;;15.90;99.90;;;;;;5051885;28;20072;-83
2021/05/11 15:58:06;;;;;;;12.25;6.07;;;15.90;99.90;;;;;;5047534;28;20053;-83
2021/05/11 16:00:35;;;;;;;14.30;7.45;;;15.90;99.90;;;;;;5032989;28;20085;-84
2021/05/11 16:03:05;;;;;;;11.95;6.78;;;15.90;99.90;;;;;;5047344;28;20049;-84
2021/05/11 16:05:37;;;;;;;10.95;7.57;;;15.90;99.90;;;;;;5050068;28;20101;-84
2021/05/11 16:08:07;;;;;;;10.95;6.60;;;16.00;99.90;;;;;;5050102;28;20051;-84
2021/05/11 16:10:34;;;;;;;10.93;7.07;;;16.00;99.90;;;;;;5065030;28;20087;-85
2021/05/11 16:13:01;;;;;;;8.45;5.97;;;16.00;99.90;;;;;;5049314;28;20107;-84
2021/05/11 16:15:29;;;;;;;6.20;5.60;;;16.00;99.90;;;;;;5049320;28;20041;-84
2021/05/11 16:17:56;;;;;;;7.70;5.13;;;16.00;99.90;;;;;;5050406;28;20130;-85
2021/05/11 16:20:23;;;;;;;7.18;4.13;;;15.90;99.90;;;;;;5040348;28;20072;-84
2021/05/11 16:22:50;;;;;;;6.07;4.43;;;15.90;99.90;;;;;;5047119;28;20524;-84
2021/05/11 16:25:18;;;;;;;4.38;3.97;;;15.90;99.90;;;;;;5046311;28;20534;-84
2021/05/11 16:27:45;;;;;;;5.80;4.00;;;16.00;99.90;;;;;;5067057;28;20160;-85
2021/05/11 16:30:14;;;;;;;6.32;4.20;;;16.00;99.90;;;;;;5046253;28;20137;-84
2021/05/11 16:32:44;;;;;;;6.82;4.20;;;16.00;99.90;;;;;;5042157;28;20527;-85
2021/05/11 16:35:11;;;;;;;4.80;4.10;;;15.90;99.90;;;;;;5030850;28;20570;-84
2021/05/11 16:37:40;;;;;;;10.02;4.32;;;15.90;99.90;;;;;;5050284;28;20081;-84
2021/05/11 16:40:11;;;;;;;4.95;3.60;;;15.90;99.90;;;;;;5058925;28;20044;-84
2021/05/11 16:42:39;;;;;;;4.35;3.53;;;15.90;99.90;;;;;;5036857;28;20193;-84
2021/05/11 16:45:10;;;;;;;7.95;3.67;;;15.90;99.90;;;;;;5046955;28;20049;-84
2021/05/11 16:47:53;;;;;;;5.43;3.25;;;15.90;99.90;;;;;;5048207;28;20060;-84
2021/05/11 16:50:29;;;;;;;7.10;4.00;;;15.90;99.90;;;;;;5042135;28;20059;-85